Currently 57°F in San Diego (City Heights), California, USA
57°F
63°F / 46°F
calm
0.00"
Sunday, January 21, 2018 6:27 PM PST

San Diego (City Heights), California Weather Summary
Last 36 Hours

Temperature Winds Hourly Humidity Dewpoint
Time Report Norm Report Norm Max Gusts Precip. Rpt. Norm Rpt. Norm Pressure
1Sun 06:27 PM  56.7°F  61°F  calm  1 mph  none  0.00"  55%  63%  40°F  47°F  N/A
Sun 06:00 PM  57.3°F  61°F  calm  1 mph  7 mph  0.00"  53%  60%  39°F  47°F  N/A
Sun 05:00 PM  59.1°F  64°F  calm  2 mph  7 mph  0.00"  54%  55%  42°F  47°F  N/A
Sun 04:00 PM  60.5°F  67°F  calm  2 mph  8 mph  0.00"  50%  50%  41°F  47°F  N/A
Sun 03:00 PM  60.8°F  68°F  3 mph SW  3 mph  9 mph  0.00"  50%  46%  41°F  46°F  N/A
Sun 02:00 PM  61.5°F  69°F  calm  3 mph  9 mph  0.00"  47%  45%  40°F  46°F  N/A
Sun 01:00 PM  61.9°F  70°F  2 mph W  3 mph  9 mph  0.00"  46%  44%  40°F  46°F  N/A
2Sun 12:22 PM  62.5°F  69°F  calm  3 mph  8 mph  ----  47%  44%  41°F  45°F  N/A
Sun 12:00 PM  61.2°F  69°F  3 mph SW  2 mph  9 mph  0.00"  48%  44%  41°F  45°F  N/A
Sun 11:00 AM  60.8°F  67°F  calm  2 mph  8 mph  0.00"  54%  47%  44°F  45°F  N/A
Sun 10:00 AM  58.6°F  64°F  1 mph S  1 mph  5 mph  0.00"  64%  51%  46°F  45°F  N/A
Sun 09:00 AM  52.2°F  60°F  1 mph NE  1 mph  6 mph  0.00"  69%  56%  42°F  44°F  N/A
Sun 08:00 AM  48.3°F  56°F  4 mph N  1 mph  4 mph  0.00"  77%  61%  41°F  42°F  N/A
3Sun 07:17 AM  46.1°F  54°F  calm  1 mph  1 mph  ----  81%  63%  40°F  41°F  N/A
Sun 07:00 AM  46.7°F  54°F  1 mph NE  1 mph  6 mph  0.00"  80%  63%  41°F  41°F  N/A
Sun 06:00 AM  47.2°F  54°F  2 mph NE  1 mph  6 mph  0.00"  81%  63%  42°F  41°F  N/A
Sun 05:00 AM  47.1°F  54°F  2 mph N  1 mph  4 mph  0.00"  84%  64%  42°F  42°F  N/A
Sun 04:00 AM  47.1°F  54°F  calm  1 mph  1 mph  0.00"  83%  65%  42°F  42°F  N/A
Sun 03:00 AM  48.3°F  55°F  calm  1 mph  4 mph  0.00"  82%  65%  43°F  43°F  N/A
Sun 02:00 AM  49.0°F  55°F  2 mph NE  1 mph  4 mph  0.00"  81%  65%  43°F  43°F  N/A
Sun 01:00 AM  50.0°F  56°F  calm  1 mph  4 mph  0.00"  79%  66%  43°F  44°F  N/A
Sun 12:00 AM  50.5°F  56°F  2 mph W  1 mph  3 mph  0.00"  78%  66%  44°F  44°F  N/A
Sat 11:00 PM  50.2°F  57°F  calm  1 mph  1 mph  0.00"  78%  67%  43°F  45°F  N/A
Sat 10:00 PM  51.4°F  57°F  calm  1 mph  3 mph  0.00"  76%  68%  44°F  46°F  N/A
Sat 09:00 PM  51.7°F  58°F  calm  1 mph  none  0.00"  75%  68%  44°F  47°F  N/A
Sat 08:00 PM  52.2°F  59°F  calm  1 mph  2 mph  0.00"  73%  66%  43°F  47°F  N/A
Sat 07:00 PM  53.5°F  60°F  calm  1 mph  3 mph  0.00"  69%  62%  43°F  47°F  N/A
Sat 06:00 PM  55.7°F  62°F  1 mph SW  1 mph  8 mph  0.00"  64%  58%  43°F  46°F  N/A
Sat 05:00 PM  57.5°F  64°F  5 mph SW  2 mph  10 mph  0.00"  63%  53%  44°F  46°F  N/A
Sat 04:00 PM  59.0°F  67°F  4 mph W  2 mph  13 mph  0.00"  49%  47%  39°F  46°F  N/A
Sat 03:00 PM  58.7°F  69°F  4 mph SW  3 mph  14 mph  0.00"  55%  44%  42°F  45°F  N/A
Sat 02:00 PM  59.3°F  70°F  7 mph SW  3 mph  15 mph  0.00"  55%  42%  43°F  45°F  N/A
Sat 01:00 PM  60.2°F  70°F  7 mph SW  3 mph  18 mph  0.00"  55%  41%  43°F  45°F  N/A
Sat 12:00 PM  59.3°F  69°F  4 mph W  2 mph  14 mph  0.00"  58%  41%  44°F  44°F  N/A
Sat 11:00 AM  59.0°F  68°F  3 mph SW  2 mph  13 mph  0.00"  57%  44%  43°F  44°F  N/A
Sat 10:00 AM  58.3°F  65°F  5 mph SW  1 mph  12 mph  0.00"  60%  48%  44°F  44°F  N/A
Sat 09:00 AM  57.5°F  60°F  8 mph W  1 mph  18 mph  0.00"  60%  54%  43°F  43°F  N/A
Sat 08:00 AM  55.6°F  56°F  4 mph SW  1 mph  14 mph  0.00"  65%  59%  44°F  41°F  N/A
Sat 07:00 AM  55.0°F  54°F  5 mph SW  1 mph  13 mph  0.00"  69%  61%  45°F  40°F  N/A

  1. Current weather data. No green row appears if the current weather data is also the high or low for the current day.
  2. High temperature for the current day.
  3. Low temperature for the current day.

The San Diego (City Height), California weather pages are a service of WeatherCurrents. City Heights is a San Diego community, located east of Balboa Park, near Interstate 15
Copyright ©Sun Jan 21 18:28:09 PST 2018  WeatherCurrents. All rights reserved. - Submit questions and comments - Privacy Policy

This page automatically refreshes every 10 minutes.